createdAt,value
2023-03-30T00:00:09.325Z,52.30
2023-03-30T00:02:36.073Z,52.50
2023-03-30T00:05:03.134Z,52.30
2023-03-30T00:07:31.635Z,52.40
2023-03-30T00:09:58.586Z,52.30
2023-03-30T00:12:25.347Z,52.40
2023-03-30T00:14:52.103Z,52.80
2023-03-30T00:17:18.921Z,52.40
2023-03-30T00:19:45.711Z,52.30
2023-03-30T00:22:12.413Z,52.30
2023-03-30T00:24:40.429Z,52.60
2023-03-30T00:27:07.769Z,52.70
2023-03-30T00:29:34.598Z,52.70
2023-03-30T00:32:01.471Z,52.50
2023-03-30T00:34:28.629Z,52.50
2023-03-30T00:36:55.326Z,52.50
2023-03-30T00:39:22.069Z,52.60
2023-03-30T00:41:50.114Z,52.70
2023-03-30T00:44:54.257Z,52.60
2023-03-30T00:47:21.819Z,53.00
2023-03-30T00:49:48.843Z,52.60
2023-03-30T00:52:15.986Z,52.70
2023-03-30T00:54:42.653Z,52.60
2023-03-30T00:57:10.823Z,52.50
2023-03-30T00:59:37.742Z,52.30
2023-03-30T01:02:05.066Z,52.40
2023-03-30T01:04:31.905Z,52.30
2023-03-30T01:06:59.179Z,52.40
2023-03-30T01:09:26.122Z,52.40
2023-03-30T01:11:52.850Z,52.50
2023-03-30T01:14:21.092Z,52.20
2023-03-30T01:16:55.568Z,52.40
2023-03-30T01:19:48.260Z,52.70
2023-03-30T01:22:36.492Z,52.90
2023-03-30T01:25:36.932Z,52.50
2023-03-30T01:28:27.689Z,52.40
2023-03-30T01:31:11.359Z,52.50
2023-03-30T01:34:10.760Z,52.70
2023-03-30T01:36:54.875Z,52.80
2023-03-30T01:39:42.966Z,52.80
2023-03-30T01:42:18.047Z,52.70
2023-03-30T01:44:51.801Z,52.70
2023-03-30T01:47:23.461Z,52.60
2023-03-30T01:49:57.628Z,52.50
2023-03-30T01:52:28.184Z,52.50
2023-03-30T01:55:00.843Z,52.70
2023-03-30T01:57:31.327Z,52.70
2023-03-30T02:00:02.673Z,52.60
2023-03-30T02:02:31.395Z,52.60
2023-03-30T02:05:00.961Z,52.70
2023-03-30T02:07:31.542Z,52.70
2023-03-30T02:10:03.508Z,52.60
2023-03-30T02:12:31.269Z,52.60
2023-03-30T02:15:01.518Z,52.60
2023-03-30T02:17:30.256Z,52.60
2023-03-30T02:19:57.453Z,52.50
2023-03-30T02:22:25.744Z,52.40
2023-03-30T02:24:55.104Z,52.40
2023-03-30T02:27:25.068Z,52.40
2023-03-30T02:29:51.803Z,52.80
2023-03-30T02:32:21.468Z,52.40
2023-03-30T02:35:03.527Z,52.50
2023-03-30T02:37:48.011Z,52.50
2023-03-30T02:40:24.453Z,52.40
2023-03-30T02:43:03.907Z,52.60
2023-03-30T02:45:43.192Z,52.50
2023-03-30T02:48:21.303Z,52.50
2023-03-30T02:50:58.767Z,52.50
2023-03-30T02:53:32.451Z,52.30
2023-03-30T02:56:02.812Z,52.70
2023-03-30T02:58:37.172Z,52.60
2023-03-30T03:01:08.816Z,52.90
2023-03-30T03:03:40.422Z,52.70
2023-03-30T03:06:08.075Z,52.70
2023-03-30T03:08:37.059Z,52.30
2023-03-30T03:11:04.442Z,52.70
2023-03-30T03:13:32.735Z,52.40
2023-03-30T03:16:00.634Z,52.40
2023-03-30T03:18:28.989Z,52.40
2023-03-30T03:20:55.744Z,52.40
2023-03-30T03:23:22.444Z,52.60
2023-03-30T03:25:49.183Z,52.40
2023-03-30T03:28:15.837Z,52.20
2023-03-30T03:30:43.971Z,52.40
2023-03-30T03:33:10.751Z,52.50
2023-03-30T03:35:37.510Z,53.20
2023-03-30T03:38:04.224Z,52.50
2023-03-30T03:40:30.936Z,52.30
2023-03-30T03:42:57.706Z,52.50
2023-03-30T03:45:24.395Z,52.40
2023-03-30T03:47:52.612Z,52.70
2023-03-30T03:50:19.498Z,53.40
2023-03-30T03:52:46.227Z,52.50
2023-03-30T03:55:14.928Z,52.80
2023-03-30T03:57:41.613Z,52.50
2023-03-30T04:00:09.491Z,52.50
2023-03-30T04:02:36.307Z,52.40
2023-03-30T04:05:04.937Z,52.40
2023-03-30T04:07:31.632Z,52.50
2023-03-30T04:09:58.330Z,53.00
2023-03-30T04:12:25.063Z,52.60
2023-03-30T04:14:52.022Z,52.70
2023-03-30T04:17:18.807Z,52.70
2023-03-30T04:19:45.564Z,52.40
2023-03-30T04:22:13.615Z,52.40
2023-03-30T04:24:40.497Z,53.40
2023-03-30T04:27:07.294Z,52.70
2023-03-30T04:29:34.059Z,53.00
2023-03-30T04:32:00.810Z,53.00
2023-03-30T04:34:27.547Z,53.20
2023-03-30T04:36:54.252Z,53.20
2023-03-30T04:39:22.289Z,53.20
2023-03-30T04:41:49.029Z,52.90
2023-03-30T04:44:15.661Z,53.00
2023-03-30T04:46:42.382Z,53.00
2023-03-30T04:49:09.095Z,52.90
2023-03-30T04:51:35.863Z,52.80
2023-03-30T04:54:02.673Z,53.20
2023-03-30T04:56:30.799Z,53.30
2023-03-30T04:58:57.485Z,53.40
2023-03-30T05:01:24.256Z,53.40
2023-03-30T05:03:51.188Z,53.00
2023-03-30T05:06:18.007Z,53.40
2023-03-30T05:08:44.652Z,54.00
2023-03-30T05:11:11.352Z,53.70
2023-03-30T05:13:39.422Z,54.00
2023-03-30T05:16:07.295Z,54.30
2023-03-30T05:18:34.007Z,54.40
2023-03-30T05:21:00.746Z,54.40
2023-03-30T05:23:27.483Z,54.60
2023-03-30T05:25:54.439Z,54.40
2023-03-30T05:28:22.224Z,55.10
2023-03-30T05:30:55.068Z,55.00
2023-03-30T05:33:22.732Z,55.10
2023-03-30T05:35:49.840Z,54.80
2023-03-30T05:38:16.765Z,55.20
2023-03-30T05:40:43.835Z,55.40
2023-03-30T05:43:10.665Z,55.60
2023-03-30T05:45:37.520Z,55.10
2023-03-30T05:48:06.358Z,55.30
2023-03-30T05:50:33.060Z,55.20
2023-03-30T05:52:59.780Z,55.30
2023-03-30T05:55:26.466Z,55.00
2023-03-30T05:57:53.246Z,55.00
2023-03-30T06:00:21.224Z,55.20
2023-03-30T06:02:47.972Z,55.20
2023-03-30T06:05:16.352Z,55.20
2023-03-30T06:07:43.128Z,55.40
2023-03-30T06:10:10.467Z,55.10
2023-03-30T06:12:37.302Z,55.10
2023-03-30T06:15:04.466Z,54.90
2023-03-30T06:17:31.261Z,55.00
2023-03-30T06:19:57.950Z,54.90
2023-03-30T06:22:26.174Z,54.80
2023-03-30T06:24:52.903Z,54.80
2023-03-30T06:27:19.578Z,54.60
2023-03-30T06:29:46.269Z,54.70
2023-03-30T06:32:12.993Z,54.80
2023-03-30T06:34:39.726Z,54.70
2023-03-30T06:37:07.464Z,54.60
2023-03-30T06:39:35.654Z,55.00
2023-03-30T06:42:02.339Z,55.30
2023-03-30T06:44:29.109Z,55.00
2023-03-30T06:46:55.785Z,55.20
2023-03-30T06:49:22.553Z,55.00
2023-03-30T06:51:49.285Z,55.10
2023-03-30T06:54:15.984Z,54.80
2023-03-30T06:56:44.057Z,54.90
2023-03-30T06:59:10.861Z,54.80
2023-03-30T07:01:37.661Z,55.00
2023-03-30T07:04:04.672Z,55.10
2023-03-30T07:06:31.374Z,55.00
2023-03-30T07:08:58.100Z,55.10
2023-03-30T07:11:24.804Z,54.90
2023-03-30T07:13:52.798Z,55.10
2023-03-30T07:16:19.570Z,55.20
2023-03-30T07:18:46.359Z,55.30
2023-03-30T07:21:13.092Z,54.90
2023-03-30T07:23:39.959Z,54.90
2023-03-30T07:26:06.698Z,55.00
2023-03-30T07:28:33.404Z,55.30
2023-03-30T07:31:06.039Z,55.30
2023-03-30T07:33:33.486Z,55.30
2023-03-30T07:36:00.403Z,55.00
2023-03-30T07:38:27.283Z,55.20
2023-03-30T07:40:54.113Z,55.30
2023-03-30T07:43:20.868Z,55.00
2023-03-30T07:45:47.660Z,55.30
2023-03-30T07:48:15.837Z,55.20
2023-03-30T07:50:42.514Z,55.10
2023-03-30T07:53:09.220Z,54.90
2023-03-30T07:55:36.017Z,54.30
2023-03-30T07:58:02.812Z,54.20
2023-03-30T08:00:29.609Z,54.20
2023-03-30T08:02:56.354Z,54.40
2023-03-30T08:05:24.519Z,54.70
2023-03-30T08:07:51.257Z,54.10
2023-03-30T08:10:18.169Z,54.40
2023-03-30T08:12:44.913Z,54.40
2023-03-30T08:15:11.989Z,54.70
2023-03-30T08:17:38.683Z,54.30
2023-03-30T08:20:06.737Z,54.80
2023-03-30T08:22:34.806Z,55.50
2023-03-30T08:25:01.577Z,54.70
2023-03-30T08:27:28.333Z,54.60
2023-03-30T08:29:55.055Z,54.50
2023-03-30T08:32:21.751Z,54.50
2023-03-30T08:34:48.513Z,54.60
2023-03-30T08:37:15.450Z,54.70
2023-03-30T08:39:43.531Z,54.60
2023-03-30T08:42:31.784Z,54.60
2023-03-30T08:44:59.288Z,54.50
2023-03-30T08:47:32.439Z,54.50
2023-03-30T08:50:05.691Z,54.50
2023-03-30T08:52:32.736Z,54.70
2023-03-30T08:55:01.908Z,54.40
2023-03-30T08:57:39.352Z,54.50
2023-03-30T09:00:16.975Z,54.50
2023-03-30T09:02:46.733Z,54.20
2023-03-30T09:05:20.220Z,53.90
2023-03-30T09:07:55.626Z,54.20
2023-03-30T09:10:26.736Z,54.20
2023-03-30T09:12:57.360Z,54.30
2023-03-30T09:15:30.516Z,54.10
2023-03-30T09:18:04.905Z,54.30
2023-03-30T09:20:36.037Z,54.40
2023-03-30T09:23:03.980Z,54.60
2023-03-30T09:25:38.865Z,54.60
2023-03-30T09:28:12.506Z,54.40
2023-03-30T09:30:41.109Z,54.50
2023-03-30T09:33:19.077Z,54.50
2023-03-30T09:36:02.091Z,54.50
2023-03-30T09:38:30.919Z,54.40
2023-03-30T09:41:07.674Z,54.30
2023-03-30T09:43:38.419Z,54.10
2023-03-30T09:46:07.344Z,54.30
2023-03-30T09:48:39.292Z,54.00
2023-03-30T09:51:19.107Z,54.10
2023-03-30T09:53:48.077Z,53.70
2023-03-30T09:56:26.003Z,53.90
2023-03-30T09:58:52.684Z,53.80
2023-03-30T10:01:20.852Z,53.90
2023-03-30T10:04:07.627Z,54.00
2023-03-30T10:06:38.039Z,53.90
2023-03-30T10:09:09.833Z,53.90
2023-03-30T10:11:41.163Z,53.90
2023-03-30T10:14:22.386Z,53.90
2023-03-30T10:16:49.225Z,54.60
2023-03-30T10:19:20.065Z,54.10
2023-03-30T10:21:47.185Z,54.30
2023-03-30T10:24:20.600Z,54.20
2023-03-30T10:26:52.554Z,54.30
2023-03-30T10:29:21.786Z,54.00
2023-03-30T10:31:52.165Z,53.90
2023-03-30T10:34:23.379Z,53.80
2023-03-30T10:36:54.634Z,53.70
2023-03-30T10:39:25.489Z,53.50
2023-03-30T10:41:54.544Z,52.90
2023-03-30T10:44:25.027Z,53.00
2023-03-30T10:46:55.861Z,52.50
2023-03-30T10:49:35.202Z,53.00
2023-03-30T10:52:12.602Z,52.90
2023-03-30T10:54:43.639Z,52.40
2023-03-30T10:57:16.663Z,52.60
2023-03-30T11:00:09.680Z,52.90
2023-03-30T11:02:49.586Z,52.80
2023-03-30T11:05:19.160Z,52.80
2023-03-30T11:07:50.036Z,53.20
2023-03-30T11:10:20.421Z,52.60
2023-03-30T11:12:54.126Z,52.10
2023-03-30T11:15:26.632Z,52.00
2023-03-30T11:18:01.202Z,51.60
2023-03-30T11:20:31.649Z,51.10
2023-03-30T11:23:10.309Z,51.40
2023-03-30T11:25:46.334Z,51.50
2023-03-30T11:28:22.565Z,50.60
2023-03-30T11:30:54.613Z,50.60
2023-03-30T11:33:29.009Z,50.20
2023-03-30T11:36:01.444Z,50.50
2023-03-30T11:38:33.991Z,50.20
2023-03-30T11:41:05.815Z,51.00
2023-03-30T11:43:33.998Z,50.10
2023-03-30T11:46:05.639Z,50.10
2023-03-30T11:48:59.245Z,49.10
2023-03-30T11:51:49.603Z,47.90
2023-03-30T11:55:02.964Z,48.50
2023-03-30T11:57:36.862Z,48.60
2023-03-30T12:00:23.926Z,48.80
2023-03-30T12:03:00.988Z,47.90
2023-03-30T12:05:32.029Z,47.50
2023-03-30T12:08:07.266Z,47.30
2023-03-30T12:10:38.927Z,47.00
2023-03-30T12:13:05.997Z,47.80
2023-03-30T12:15:43.687Z,46.70
2023-03-30T12:18:19.244Z,45.90
2023-03-30T12:20:53.239Z,47.10
2023-03-30T12:23:31.169Z,46.20
2023-03-30T12:26:24.500Z,46.70
2023-03-30T12:29:20.764Z,47.00
2023-03-30T12:32:05.685Z,46.40
2023-03-30T12:34:33.886Z,47.30
2023-03-30T12:37:06.672Z,48.10
2023-03-30T12:39:38.951Z,49.10
2023-03-30T12:42:10.275Z,49.90
2023-03-30T12:44:49.681Z,49.60
2023-03-30T12:47:32.764Z,49.70
2023-03-30T12:50:22.942Z,50.10
2023-03-30T12:53:01.837Z,50.10
2023-03-30T12:55:42.856Z,50.40
2023-03-30T12:58:51.452Z,50.40
2023-03-30T13:01:45.461Z,49.80
2023-03-30T13:04:17.870Z,49.20
2023-03-30T13:06:51.997Z,51.20
2023-03-30T13:09:50.630Z,51.50
2023-03-30T13:12:42.306Z,52.00
2023-03-30T13:15:39.435Z,52.20
2023-03-30T13:18:31.406Z,52.50
2023-03-30T13:21:16.701Z,52.50
2023-03-30T13:23:44.685Z,52.60
2023-03-30T13:26:33.761Z,52.40
2023-03-30T13:29:07.934Z,52.50
2023-03-30T13:31:45.767Z,52.60
2023-03-30T13:34:23.784Z,52.50
2023-03-30T13:37:00.318Z,53.00
2023-03-30T13:39:32.269Z,52.70
2023-03-30T13:42:15.038Z,52.80
2023-03-30T13:44:53.952Z,53.00
2023-03-30T13:47:37.397Z,53.10
2023-03-30T13:50:12.544Z,53.30
2023-03-30T13:52:44.932Z,53.30
2023-03-30T13:55:18.589Z,53.40
2023-03-30T13:57:45.440Z,53.50
2023-03-30T14:00:27.049Z,53.60
2023-03-30T14:02:53.782Z,53.50
2023-03-30T14:05:23.292Z,53.40
2023-03-30T14:07:55.560Z,53.70
2023-03-30T14:10:22.326Z,53.90
2023-03-30T14:12:53.616Z,53.90
2023-03-30T14:15:23.492Z,53.90
2023-03-30T14:17:52.211Z,54.10
2023-03-30T14:20:37.732Z,53.90
2023-03-30T14:23:06.415Z,54.00
2023-03-30T14:25:38.244Z,54.10
2023-03-30T14:28:13.294Z,54.20
2023-03-30T14:30:49.568Z,54.00
2023-03-30T14:33:16.320Z,54.30
2023-03-30T14:35:45.429Z,54.50
2023-03-30T14:38:20.247Z,54.50
2023-03-30T14:40:47.299Z,54.60
2023-03-30T14:43:15.701Z,54.60
2023-03-30T14:45:43.184Z,54.40
2023-03-30T14:48:20.183Z,54.50
2023-03-30T14:50:47.049Z,54.40
2023-03-30T14:53:18.947Z,54.60
2023-03-30T14:55:45.962Z,54.40
2023-03-30T14:58:14.661Z,54.30
2023-03-30T15:00:42.488Z,54.20
2023-03-30T15:03:19.693Z,54.10
2023-03-30T15:05:53.595Z,54.20
2023-03-30T15:08:25.771Z,54.20
2023-03-30T15:10:54.721Z,54.10
2023-03-30T15:13:25.892Z,54.20
2023-03-30T15:15:54.422Z,54.10
2023-03-30T15:18:25.297Z,54.20
2023-03-30T15:20:52.731Z,54.20
2023-03-30T15:23:21.181Z,54.30
2023-03-30T15:25:48.662Z,54.40
2023-03-30T15:28:17.019Z,54.60
2023-03-30T15:30:45.372Z,54.50
2023-03-30T15:33:21.496Z,54.70
2023-03-30T15:35:50.636Z,54.60
2023-03-30T15:38:18.137Z,51.90
2023-03-30T15:40:47.635Z,52.40
2023-03-30T15:43:17.337Z,51.10
2023-03-30T15:45:50.416Z,50.30
2023-03-30T15:48:20.846Z,51.30
2023-03-30T15:50:52.739Z,50.90
2023-03-30T15:53:28.847Z,48.90
2023-03-30T15:55:59.101Z,48.90
2023-03-30T15:58:27.663Z,49.10
2023-03-30T16:00:55.746Z,47.80
2023-03-30T16:03:36.694Z,48.30
2023-03-30T16:06:03.477Z,48.80
2023-03-30T16:08:30.220Z,49.70
2023-03-30T16:10:58.554Z,50.20
2023-03-30T16:13:25.395Z,50.50
2023-03-30T16:15:53.413Z,50.50
2023-03-30T16:18:20.149Z,50.50
2023-03-30T16:20:46.968Z,51.20
2023-03-30T16:23:13.769Z,51.20
2023-03-30T16:25:45.222Z,51.30
2023-03-30T16:28:16.202Z,51.90
2023-03-30T16:30:44.971Z,51.40
2023-03-30T16:33:11.813Z,51.90
2023-03-30T16:35:38.571Z,52.40
2023-03-30T16:38:05.311Z,51.90
2023-03-30T16:40:35.900Z,51.50
2023-03-30T16:43:03.087Z,51.70
2023-03-30T16:45:32.254Z,51.60
2023-03-30T16:47:59.411Z,51.00
2023-03-30T16:50:33.051Z,51.20
2023-03-30T16:52:59.788Z,51.10
2023-03-30T16:55:26.532Z,50.80
2023-03-30T16:57:53.267Z,51.00
2023-03-30T17:00:22.894Z,51.30
2023-03-30T17:02:50.997Z,51.40
2023-03-30T17:05:18.032Z,51.30
2023-03-30T17:07:45.091Z,51.70
2023-03-30T17:10:24.373Z,51.40
2023-03-30T17:12:51.447Z,50.60
2023-03-30T17:15:18.581Z,50.90
2023-03-30T17:17:45.607Z,51.60
2023-03-30T17:20:26.108Z,51.90
2023-03-30T17:22:53.050Z,51.80
2023-03-30T17:25:20.908Z,52.70
2023-03-30T17:27:48.021Z,52.30
2023-03-30T17:30:21.755Z,51.70
2023-03-30T17:32:48.564Z,51.40
2023-03-30T17:35:15.728Z,51.40
2023-03-30T17:37:44.029Z,50.90
2023-03-30T17:40:20.101Z,50.70
2023-03-30T17:42:47.349Z,50.50
2023-03-30T17:45:16.243Z,50.60
2023-03-30T17:47:51.504Z,50.60
2023-03-30T17:50:46.612Z,50.20
2023-03-30T17:56:18.447Z,50.70
2023-03-30T17:58:45.141Z,51.10
2023-03-30T18:01:11.874Z,50.90
2023-03-30T18:03:39.481Z,51.00
2023-03-30T18:06:12.545Z,51.30
2023-03-30T18:08:40.615Z,51.40
2023-03-30T18:11:07.568Z,51.40
2023-03-30T18:13:58.508Z,51.60
2023-03-30T18:16:58.462Z,51.50
2023-03-30T18:19:32.502Z,51.90
2023-03-30T18:21:59.311Z,52.80
2023-03-30T18:24:27.347Z,52.00
2023-03-30T18:26:54.105Z,52.20
2023-03-30T18:29:20.905Z,52.40
2023-03-30T18:31:47.817Z,52.50
2023-03-30T18:34:14.667Z,52.20
2023-03-30T18:36:42.064Z,52.50
2023-03-30T18:39:10.569Z,52.70
2023-03-30T18:41:38.627Z,52.70
2023-03-30T18:44:05.777Z,52.60
2023-03-30T18:46:32.665Z,52.60
2023-03-30T18:48:59.537Z,52.50
2023-03-30T18:51:26.292Z,52.70
2023-03-30T18:53:52.945Z,52.60
2023-03-30T18:56:20.052Z,52.50
2023-03-30T18:58:48.324Z,52.70
2023-03-30T19:01:15.009Z,52.60
2023-03-30T19:03:42.236Z,52.70
2023-03-30T19:06:11.772Z,52.70
2023-03-30T19:08:38.408Z,52.80
2023-03-30T19:11:05.115Z,52.70
2023-03-30T19:13:33.839Z,52.70
2023-03-30T19:16:01.913Z,52.70
2023-03-30T19:18:28.659Z,52.70
2023-03-30T19:20:55.464Z,52.70
2023-03-30T19:23:22.230Z,52.80
2023-03-30T19:25:48.975Z,52.70
2023-03-30T19:28:16.019Z,52.80
2023-03-30T19:30:43.477Z,52.80
2023-03-30T19:33:14.012Z,52.70
2023-03-30T19:35:41.208Z,52.70
2023-03-30T19:38:08.046Z,52.80
2023-03-30T19:40:36.329Z,53.50
2023-03-30T19:43:02.982Z,52.90
2023-03-30T19:45:29.634Z,52.80
2023-03-30T19:47:56.397Z,52.80
2023-03-30T19:50:24.400Z,52.90
2023-03-30T19:52:51.719Z,52.90
2023-03-30T19:55:19.628Z,53.00
2023-03-30T19:57:46.795Z,52.90
2023-03-30T20:00:16.231Z,53.00
2023-03-30T20:02:44.529Z,53.10
2023-03-30T20:05:11.838Z,53.00
2023-03-30T20:07:40.279Z,53.10
2023-03-30T20:10:10.111Z,53.10
2023-03-30T20:12:37.216Z,53.10
2023-03-30T20:15:04.697Z,53.10
2023-03-30T20:17:31.706Z,53.00
2023-03-30T20:19:58.517Z,53.10
2023-03-30T20:22:25.334Z,53.10
2023-03-30T20:24:53.535Z,53.20
2023-03-30T20:27:20.246Z,53.00
2023-03-30T20:29:46.877Z,53.00
2023-03-30T20:32:13.772Z,53.00
2023-03-30T20:34:40.443Z,53.00
2023-03-30T20:37:07.129Z,53.00
2023-03-30T20:39:33.829Z,52.90
2023-03-30T20:42:01.930Z,52.90
2023-03-30T20:44:28.671Z,53.00
2023-03-30T20:46:55.770Z,53.10
2023-03-30T20:49:22.641Z,53.10
2023-03-30T20:51:49.416Z,53.20
2023-03-30T20:54:16.408Z,53.30
2023-03-30T20:56:43.197Z,53.20
2023-03-30T20:59:11.406Z,53.20
2023-03-30T21:01:38.292Z,53.20
2023-03-30T21:04:05.280Z,53.30
2023-03-30T21:06:32.976Z,53.10
2023-03-30T21:09:01.447Z,53.10
2023-03-30T21:11:30.391Z,53.10
2023-03-30T21:13:57.266Z,53.00
2023-03-30T21:16:25.442Z,53.10
2023-03-30T21:18:52.606Z,53.20
2023-03-30T21:21:19.539Z,53.20
2023-03-30T21:23:46.534Z,53.20
2023-03-30T21:26:14.157Z,53.40
2023-03-30T21:28:41.007Z,53.30
2023-03-30T21:31:09.577Z,53.40
2023-03-30T21:33:38.276Z,53.40
2023-03-30T21:36:05.769Z,53.40
2023-03-30T21:38:33.395Z,53.40
2023-03-30T21:41:02.051Z,53.30
2023-03-30T21:43:30.064Z,53.50
2023-03-30T21:45:58.865Z,53.50
2023-03-30T21:48:29.523Z,53.50
2023-03-30T21:51:03.528Z,53.50
2023-03-30T21:53:31.811Z,53.50
2023-03-30T21:55:59.578Z,53.80
2023-03-30T21:58:26.872Z,54.00
2023-03-30T22:01:08.579Z,53.90
2023-03-30T22:03:38.713Z,54.00
2023-03-30T22:06:08.719Z,53.90
2023-03-30T22:08:35.809Z,53.90
2023-03-30T22:11:04.847Z,53.90
2023-03-30T22:13:32.145Z,53.80
2023-03-30T22:16:00.755Z,53.80
2023-03-30T22:18:28.300Z,53.80
2023-03-30T22:20:58.533Z,53.80
2023-03-30T22:23:27.090Z,53.70
2023-03-30T22:25:53.756Z,53.70
2023-03-30T22:28:21.033Z,53.60
2023-03-30T22:30:47.675Z,53.60
2023-03-30T22:33:15.077Z,53.50
2023-03-30T22:35:43.445Z,53.50
2023-03-30T22:38:11.300Z,53.50
2023-03-30T22:40:39.627Z,53.60
2023-03-30T22:43:06.369Z,53.40
2023-03-30T22:45:33.184Z,53.20
2023-03-30T22:48:00.142Z,53.40
2023-03-30T22:50:28.378Z,53.50
2023-03-30T22:52:55.459Z,53.40
2023-03-30T22:55:22.438Z,53.30
2023-03-30T22:57:51.968Z,53.30
2023-03-30T23:00:19.472Z,53.30
2023-03-30T23:02:47.588Z,53.40
2023-03-30T23:05:14.452Z,53.40
2023-03-30T23:07:43.160Z,53.40
2023-03-30T23:10:12.586Z,53.40
2023-03-30T23:12:39.540Z,53.30
2023-03-30T23:15:08.710Z,53.40
2023-03-30T23:17:35.906Z,53.40
2023-03-30T23:20:03.320Z,53.20
2023-03-30T23:22:30.271Z,53.30
2023-03-30T23:24:57.015Z,53.30
2023-03-30T23:27:23.704Z,53.20
2023-03-30T23:29:50.565Z,53.20
2023-03-30T23:32:18.747Z,53.20
2023-03-30T23:34:45.582Z,53.20
2023-03-30T23:37:12.544Z,53.20
2023-03-30T23:39:39.271Z,53.30
2023-03-30T23:42:06.087Z,53.40
2023-03-30T23:44:32.799Z,53.50
2023-03-30T23:46:59.549Z,53.60
2023-03-30T23:49:27.881Z,53.60
2023-03-30T23:51:54.665Z,53.70
2023-03-30T23:54:21.705Z,53.70
2023-03-30T23:56:48.659Z,53.80
2023-03-30T23:59:15.676Z,53.80
